sensor_id;sensor_type;location;lat;lon;timestamp;P1;durP1;ratioP1;P2;durP2;ratioP2
76094;SDS011;64821;13.710;100.604;2023-03-23T00:00:42;12.73;;;6.00;;
76094;SDS011;64821;13.710;100.604;2023-03-23T00:01:44;12.85;;;5.40;;
76094;SDS011;64821;13.710;100.604;2023-03-23T00:02:46;13.93;;;5.90;;
76094;SDS011;64821;13.710;100.604;2023-03-23T00:03:48;11.70;;;5.80;;
76094;SDS011;64821;13.710;100.604;2023-03-23T00:04:51;14.52;;;5.95;;
76094;SDS011;64821;13.710;100.604;2023-03-23T00:05:54;11.82;;;6.00;;
76094;SDS011;64821;13.710;100.604;2023-03-23T00:06:56;13.80;;;5.85;;
76094;SDS011;64821;13.710;100.604;2023-03-23T00:07:58;12.57;;;5.80;;
76094;SDS011;64821;13.710;100.604;2023-03-23T00:09:00;10.63;;;6.07;;
76094;SDS011;64821;13.710;100.604;2023-03-23T00:10:02;12.93;;;5.88;;
76094;SDS011;64821;13.710;100.604;2023-03-23T00:11:06;11.18;;;5.40;;
76094;SDS011;64821;13.710;100.604;2023-03-23T00:12:08;13.00;;;6.13;;
76094;SDS011;64821;13.710;100.604;2023-03-23T00:13:10;13.50;;;5.77;;
76094;SDS011;64821;13.710;100.604;2023-03-23T00:14:12;13.27;;;6.28;;
76094;SDS011;64821;13.710;100.604;2023-03-23T00:15:14;12.85;;;6.28;;
76094;SDS011;64821;13.710;100.604;2023-03-23T00:16:17;12.15;;;5.30;;
76094;SDS011;64821;13.710;100.604;2023-03-23T00:17:19;11.95;;;5.72;;
76094;SDS011;64821;13.710;100.604;2023-03-23T00:18:22;12.73;;;5.63;;
76094;SDS011;64821;13.710;100.604;2023-03-23T00:19:24;13.93;;;5.65;;
76094;SDS011;64821;13.710;100.604;2023-03-23T00:20:26;11.23;;;5.82;;
76094;SDS011;64821;13.710;100.604;2023-03-23T00:21:29;13.98;;;6.00;;
76094;SDS011;64821;13.710;100.604;2023-03-23T00:22:32;12.98;;;5.82;;
76094;SDS011;64821;13.710;100.604;2023-03-23T00:23:34;12.47;;;5.63;;
76094;SDS011;64821;13.710;100.604;2023-03-23T00:24:36;10.35;;;5.63;;
76094;SDS011;64821;13.710;100.604;2023-03-23T00:25:38;12.10;;;6.22;;
76094;SDS011;64821;13.710;100.604;2023-03-23T00:26:42;13.18;;;5.85;;
76094;SDS011;64821;13.710;100.604;2023-03-23T00:27:44;12.55;;;6.18;;
76094;SDS011;64821;13.710;100.604;2023-03-23T00:28:46;11.10;;;5.77;;
76094;SDS011;64821;13.710;100.604;2023-03-23T00:29:48;11.63;;;6.40;;
76094;SDS011;64821;13.710;100.604;2023-03-23T00:30:55;14.75;;;6.30;;
76094;SDS011;64821;13.710;100.604;2023-03-23T00:31:57;13.70;;;6.70;;
76094;SDS011;64821;13.710;100.604;2023-03-23T00:33:00;14.00;;;6.75;;
76094;SDS011;64821;13.710;100.604;2023-03-23T00:34:03;16.40;;;6.73;;
76094;SDS011;64821;13.710;100.604;2023-03-23T00:35:06;15.60;;;6.13;;
76094;SDS011;64821;13.710;100.604;2023-03-23T00:36:09;10.82;;;5.57;;
76094;SDS011;64821;13.710;100.604;2023-03-23T00:37:12;12.10;;;6.32;;
76094;SDS011;64821;13.710;100.604;2023-03-23T00:38:14;12.05;;;6.05;;
76094;SDS011;64821;13.710;100.604;2023-03-23T00:39:16;13.77;;;5.97;;
76094;SDS011;64821;13.710;100.604;2023-03-23T00:40:19;13.05;;;5.93;;
76094;SDS011;64821;13.710;100.604;2023-03-23T00:41:20;14.15;;;6.38;;
76094;SDS011;64821;13.710;100.604;2023-03-23T00:42:24;12.38;;;6.03;;
76094;SDS011;64821;13.710;100.604;2023-03-23T00:43:26;13.48;;;6.15;;
76094;SDS011;64821;13.710;100.604;2023-03-23T00:44:28;12.00;;;6.50;;
76094;SDS011;64821;13.710;100.604;2023-03-23T00:45:31;10.80;;;6.45;;
76094;SDS011;64821;13.710;100.604;2023-03-23T00:46:32;12.07;;;5.93;;
76094;SDS011;64821;13.710;100.604;2023-03-23T00:47:34;13.02;;;5.90;;
76094;SDS011;64821;13.710;100.604;2023-03-23T00:48:37;12.05;;;6.13;;
76094;SDS011;64821;13.710;100.604;2023-03-23T00:49:39;14.53;;;6.20;;
76094;SDS011;64821;13.710;100.604;2023-03-23T00:50:41;11.20;;;5.78;;
76094;SDS011;64821;13.710;100.604;2023-03-23T00:51:43;11.65;;;6.20;;
76094;SDS011;64821;13.710;100.604;2023-03-23T00:52:45;11.52;;;5.63;;
76094;SDS011;64821;13.710;100.604;2023-03-23T00:53:47;11.25;;;5.43;;
76094;SDS011;64821;13.710;100.604;2023-03-23T00:54:49;13.40;;;6.27;;
76094;SDS011;64821;13.710;100.604;2023-03-23T00:55:51;10.73;;;5.75;;
76094;SDS011;64821;13.710;100.604;2023-03-23T00:56:53;10.73;;;5.68;;
76094;SDS011;64821;13.710;100.604;2023-03-23T00:57:57;12.20;;;6.05;;
76094;SDS011;64821;13.710;100.604;2023-03-23T00:58:59;12.02;;;5.72;;
76094;SDS011;64821;13.710;100.604;2023-03-23T01:00:01;12.03;;;6.30;;
76094;SDS011;64821;13.710;100.604;2023-03-23T01:01:05;13.80;;;6.60;;
76094;SDS011;64821;13.710;100.604;2023-03-23T01:02:07;11.15;;;6.15;;
76094;SDS011;64821;13.710;100.604;2023-03-23T01:03:09;10.15;;;5.60;;
76094;SDS011;64821;13.710;100.604;2023-03-23T01:04:11;11.40;;;5.63;;
76094;SDS011;64821;13.710;100.604;2023-03-23T01:05:13;10.73;;;5.70;;
76094;SDS011;64821;13.710;100.604;2023-03-23T01:06:15;14.23;;;6.32;;
76094;SDS011;64821;13.710;100.604;2023-03-23T01:07:17;14.32;;;6.68;;
76094;SDS011;64821;13.710;100.604;2023-03-23T01:08:19;12.48;;;6.40;;
76094;SDS011;64821;13.710;100.604;2023-03-23T01:09:22;12.00;;;6.20;;
76094;SDS011;64821;13.710;100.604;2023-03-23T01:10:24;10.87;;;6.13;;
76094;SDS011;64821;13.710;100.604;2023-03-23T01:11:26;15.52;;;7.20;;
76094;SDS011;64821;13.710;100.604;2023-03-23T01:12:28;14.07;;;6.70;;
76094;SDS011;64821;13.710;100.604;2023-03-23T01:13:32;13.98;;;7.20;;
76094;SDS011;64821;13.710;100.604;2023-03-23T01:14:34;14.98;;;6.88;;
76094;SDS011;64821;13.710;100.604;2023-03-23T01:15:36;14.37;;;6.80;;
76094;SDS011;64821;13.710;100.604;2023-03-23T01:16:38;12.82;;;6.53;;
76094;SDS011;64821;13.710;100.604;2023-03-23T01:17:40;13.55;;;6.97;;
76094;SDS011;64821;13.710;100.604;2023-03-23T01:18:42;16.38;;;7.93;;
76094;SDS011;64821;13.710;100.604;2023-03-23T01:19:44;13.55;;;7.90;;
76094;SDS011;64821;13.710;100.604;2023-03-23T01:20:46;14.57;;;7.20;;
76094;SDS011;64821;13.710;100.604;2023-03-23T01:21:48;18.73;;;8.88;;
76094;SDS011;64821;13.710;100.604;2023-03-23T01:22:50;13.85;;;7.60;;
76094;SDS011;64821;13.710;100.604;2023-03-23T01:23:52;13.77;;;6.70;;
76094;SDS011;64821;13.710;100.604;2023-03-23T01:24:54;13.43;;;7.32;;
76094;SDS011;64821;13.710;100.604;2023-03-23T01:25:56;13.83;;;7.10;;
76094;SDS011;64821;13.710;100.604;2023-03-23T01:26:58;13.35;;;7.15;;
76094;SDS011;64821;13.710;100.604;2023-03-23T01:28:00;12.52;;;7.43;;
76094;SDS011;64821;13.710;100.604;2023-03-23T01:29:04;14.85;;;7.43;;
76094;SDS011;64821;13.710;100.604;2023-03-23T01:30:06;12.77;;;7.43;;
76094;SDS011;64821;13.710;100.604;2023-03-23T01:31:12;12.80;;;7.50;;
76094;SDS011;64821;13.710;100.604;2023-03-23T01:32:15;13.15;;;8.40;;
76094;SDS011;64821;13.710;100.604;2023-03-23T01:33:17;15.55;;;9.00;;
76094;SDS011;64821;13.710;100.604;2023-03-23T01:34:19;15.18;;;9.05;;
76094;SDS011;64821;13.710;100.604;2023-03-23T01:35:21;13.68;;;8.80;;
76094;SDS011;64821;13.710;100.604;2023-03-23T01:36:23;16.00;;;8.50;;
76094;SDS011;64821;13.710;100.604;2023-03-23T01:37:26;11.75;;;7.82;;
76094;SDS011;64821;13.710;100.604;2023-03-23T01:38:28;12.20;;;7.95;;
76094;SDS011;64821;13.710;100.604;2023-03-23T01:39:30;14.93;;;9.00;;
76094;SDS011;64821;13.710;100.604;2023-03-23T01:40:32;15.70;;;8.93;;
76094;SDS011;64821;13.710;100.604;2023-03-23T01:41:34;14.67;;;8.27;;
76094;SDS011;64821;13.710;100.604;2023-03-23T01:42:37;13.88;;;8.40;;
76094;SDS011;64821;13.710;100.604;2023-03-23T01:43:53;14.93;;;8.05;;
76094;SDS011;64821;13.710;100.604;2023-03-23T01:46:31;13.30;;;8.43;;
76094;SDS011;64821;13.710;100.604;2023-03-23T01:47:34;14.40;;;8.40;;
76094;SDS011;64821;13.710;100.604;2023-03-23T01:48:36;15.02;;;8.15;;
76094;SDS011;64821;13.710;100.604;2023-03-23T01:49:41;13.10;;;8.48;;
76094;SDS011;64821;13.710;100.604;2023-03-23T01:50:49;13.75;;;7.82;;
76094;SDS011;64821;13.710;100.604;2023-03-23T01:51:55;15.45;;;9.18;;
76094;SDS011;64821;13.710;100.604;2023-03-23T01:53:00;15.57;;;8.30;;
76094;SDS011;64821;13.710;100.604;2023-03-23T01:54:06;18.00;;;8.52;;
76094;SDS011;64821;13.710;100.604;2023-03-23T01:55:11;15.23;;;8.23;;
76094;SDS011;64821;13.710;100.604;2023-03-23T01:56:14;13.60;;;8.18;;
76094;SDS011;64821;13.710;100.604;2023-03-23T01:57:20;16.10;;;9.55;;
76094;SDS011;64821;13.710;100.604;2023-03-23T01:58:26;18.93;;;8.90;;
76094;SDS011;64821;13.710;100.604;2023-03-23T01:59:32;13.90;;;8.57;;
76094;SDS011;64821;13.710;100.604;2023-03-23T02:00:38;14.50;;;8.80;;
76094;SDS011;64821;13.710;100.604;2023-03-23T02:01:41;14.45;;;8.10;;
76094;SDS011;64821;13.710;100.604;2023-03-23T02:02:45;15.25;;;8.90;;
76094;SDS011;64821;13.710;100.604;2023-03-23T02:03:50;16.93;;;9.00;;
76094;SDS011;64821;13.710;100.604;2023-03-23T02:04:55;15.20;;;8.63;;
76094;SDS011;64821;13.710;100.604;2023-03-23T02:06:03;16.63;;;9.10;;
76094;SDS011;64821;13.710;100.604;2023-03-23T02:07:05;14.25;;;8.85;;
76094;SDS011;64821;13.710;100.604;2023-03-23T02:08:08;13.32;;;8.32;;
76094;SDS011;64821;13.710;100.604;2023-03-23T02:09:12;20.50;;;9.63;;
76094;SDS011;64821;13.710;100.604;2023-03-23T02:10:14;18.63;;;9.25;;
76094;SDS011;64821;13.710;100.604;2023-03-23T02:11:17;16.90;;;9.13;;
76094;SDS011;64821;13.710;100.604;2023-03-23T02:12:20;13.27;;;8.50;;
76094;SDS011;64821;13.710;100.604;2023-03-23T02:13:22;17.95;;;9.90;;
76094;SDS011;64821;13.710;100.604;2023-03-23T02:14:26;14.77;;;9.33;;
76094;SDS011;64821;13.710;100.604;2023-03-23T02:15:32;17.20;;;10.07;;
76094;SDS011;64821;13.710;100.604;2023-03-23T02:16:45;15.80;;;9.00;;
76094;SDS011;64821;13.710;100.604;2023-03-23T02:17:56;19.27;;;10.02;;
76094;SDS011;64821;13.710;100.604;2023-03-23T02:19:13;18.65;;;10.63;;
76094;SDS011;64821;13.710;100.604;2023-03-23T02:23:45;18.58;;;11.23;;
76094;SDS011;64821;13.710;100.604;2023-03-23T02:25:17;15.50;;;10.13;;
76094;SDS011;64821;13.710;100.604;2023-03-23T02:26:45;16.48;;;9.82;;
76094;SDS011;64821;13.710;100.604;2023-03-23T02:28:02;14.27;;;9.90;;
76094;SDS011;64821;13.710;100.604;2023-03-23T02:30:56;15.35;;;9.18;;
76094;SDS011;64821;13.710;100.604;2023-03-23T02:32:12;19.35;;;9.73;;
76094;SDS011;64821;13.710;100.604;2023-03-23T02:33:40;15.55;;;10.60;;
76094;SDS011;64821;13.710;100.604;2023-03-23T02:34:50;16.90;;;11.13;;
76094;SDS011;64821;13.710;100.604;2023-03-23T02:35:58;19.30;;;10.90;;
76094;SDS011;64821;13.710;100.604;2023-03-23T02:37:06;20.27;;;11.40;;
76094;SDS011;64821;13.710;100.604;2023-03-23T02:38:13;16.30;;;11.10;;
76094;SDS011;64821;13.710;100.604;2023-03-23T02:39:18;18.38;;;12.18;;
76094;SDS011;64821;13.710;100.604;2023-03-23T02:40:23;16.77;;;11.70;;
76094;SDS011;64821;13.710;100.604;2023-03-23T02:41:30;18.92;;;11.65;;
76094;SDS011;64821;13.710;100.604;2023-03-23T02:42:38;19.88;;;11.75;;
76094;SDS011;64821;13.710;100.604;2023-03-23T02:43:44;20.02;;;11.90;;
76094;SDS011;64821;13.710;100.604;2023-03-23T02:44:47;20.00;;;11.15;;
76094;SDS011;64821;13.710;100.604;2023-03-23T02:45:53;17.40;;;11.33;;
76094;SDS011;64821;13.710;100.604;2023-03-23T02:46:57;17.42;;;10.90;;
76094;SDS011;64821;13.710;100.604;2023-03-23T02:48:01;18.02;;;11.63;;
76094;SDS011;64821;13.710;100.604;2023-03-23T02:49:06;17.27;;;11.20;;
76094;SDS011;64821;13.710;100.604;2023-03-23T02:50:11;20.05;;;11.77;;
76094;SDS011;64821;13.710;100.604;2023-03-23T02:51:17;17.90;;;11.50;;
76094;SDS011;64821;13.710;100.604;2023-03-23T02:52:21;15.85;;;11.55;;
76094;SDS011;64821;13.710;100.604;2023-03-23T02:53:26;17.45;;;11.70;;
76094;SDS011;64821;13.710;100.604;2023-03-23T02:54:29;17.08;;;11.10;;
76094;SDS011;64821;13.710;100.604;2023-03-23T02:55:31;16.77;;;11.23;;
76094;SDS011;64821;13.710;100.604;2023-03-23T02:56:35;16.30;;;11.90;;
76094;SDS011;64821;13.710;100.604;2023-03-23T02:57:38;20.23;;;13.93;;
76094;SDS011;64821;13.710;100.604;2023-03-23T02:58:40;18.70;;;12.18;;
76094;SDS011;64821;13.710;100.604;2023-03-23T02:59:43;19.65;;;12.32;;
76094;SDS011;64821;13.710;100.604;2023-03-23T03:00:45;19.75;;;12.48;;
76094;SDS011;64821;13.710;100.604;2023-03-23T03:01:50;15.83;;;11.43;;
76094;SDS011;64821;13.710;100.604;2023-03-23T03:03:07;17.55;;;11.40;;
76094;SDS011;64821;13.710;100.604;2023-03-23T03:04:16;19.95;;;12.20;;
76094;SDS011;64821;13.710;100.604;2023-03-23T03:05:25;19.55;;;12.52;;
76094;SDS011;64821;13.710;100.604;2023-03-23T03:06:36;18.20;;;12.60;;
76094;SDS011;64821;13.710;100.604;2023-03-23T03:07:51;20.30;;;12.77;;
76094;SDS011;64821;13.710;100.604;2023-03-23T03:09:02;18.50;;;12.02;;
76094;SDS011;64821;13.710;100.604;2023-03-23T03:10:15;23.55;;;13.02;;
76094;SDS011;64821;13.710;100.604;2023-03-23T03:11:23;18.25;;;13.02;;
76094;SDS011;64821;13.710;100.604;2023-03-23T03:12:27;18.15;;;12.75;;
76094;SDS011;64821;13.710;100.604;2023-03-23T03:13:38;17.40;;;12.30;;
76094;SDS011;64821;13.710;100.604;2023-03-23T03:14:47;17.73;;;12.02;;
76094;SDS011;64821;13.710;100.604;2023-03-23T03:15:55;18.30;;;12.00;;
76094;SDS011;64821;13.710;100.604;2023-03-23T03:17:02;18.13;;;12.65;;
76094;SDS011;64821;13.710;100.604;2023-03-23T03:18:11;19.08;;;12.85;;
76094;SDS011;64821;13.710;100.604;2023-03-23T03:19:19;20.00;;;12.17;;
76094;SDS011;64821;13.710;100.604;2023-03-23T03:20:25;18.88;;;12.60;;
76094;SDS011;64821;13.710;100.604;2023-03-23T03:21:30;19.75;;;13.80;;
76094;SDS011;64821;13.710;100.604;2023-03-23T03:22:37;17.48;;;13.05;;
76094;SDS011;64821;13.710;100.604;2023-03-23T03:23:41;19.50;;;13.57;;
76094;SDS011;64821;13.710;100.604;2023-03-23T03:24:45;18.43;;;12.90;;
76094;SDS011;64821;13.710;100.604;2023-03-23T03:25:48;18.35;;;13.02;;
76094;SDS011;64821;13.710;100.604;2023-03-23T03:26:51;17.40;;;11.90;;
76094;SDS011;64821;13.710;100.604;2023-03-23T03:27:57;15.80;;;11.75;;
76094;SDS011;64821;13.710;100.604;2023-03-23T03:28:59;18.85;;;12.68;;
76094;SDS011;64821;13.710;100.604;2023-03-23T03:30:02;18.13;;;12.50;;
76094;SDS011;64821;13.710;100.604;2023-03-23T03:31:07;19.08;;;12.70;;
76094;SDS011;64821;13.710;100.604;2023-03-23T03:32:11;16.75;;;11.95;;
76094;SDS011;64821;13.710;100.604;2023-03-23T03:33:15;17.65;;;12.13;;
76094;SDS011;64821;13.710;100.604;2023-03-23T03:34:17;15.68;;;11.45;;
76094;SDS011;64821;13.710;100.604;2023-03-23T03:35:21;18.27;;;10.97;;
76094;SDS011;64821;13.710;100.604;2023-03-23T03:36:26;15.75;;;11.40;;
76094;SDS011;64821;13.710;100.604;2023-03-23T03:37:32;17.10;;;12.02;;
76094;SDS011;64821;13.710;100.604;2023-03-23T03:38:42;17.10;;;11.70;;
76094;SDS011;64821;13.710;100.604;2023-03-23T03:39:44;15.15;;;10.63;;
76094;SDS011;64821;13.710;100.604;2023-03-23T03:40:46;17.33;;;12.60;;
76094;SDS011;64821;13.710;100.604;2023-03-23T03:41:48;16.50;;;11.52;;
76094;SDS011;64821;13.710;100.604;2023-03-23T03:42:50;18.33;;;12.35;;
76094;SDS011;64821;13.710;100.604;2023-03-23T03:43:52;19.33;;;12.23;;
76094;SDS011;64821;13.710;100.604;2023-03-23T03:44:54;19.98;;;11.90;;
76094;SDS011;64821;13.710;100.604;2023-03-23T03:45:56;18.67;;;12.37;;
76094;SDS011;64821;13.710;100.604;2023-03-23T03:46:58;19.25;;;11.55;;
76094;SDS011;64821;13.710;100.604;2023-03-23T03:48:00;17.73;;;12.10;;
76094;SDS011;64821;13.710;100.604;2023-03-23T03:49:02;18.23;;;12.95;;
76094;SDS011;64821;13.710;100.604;2023-03-23T03:50:08;18.35;;;12.27;;
76094;SDS011;64821;13.710;100.604;2023-03-23T03:51:10;20.23;;;13.07;;
76094;SDS011;64821;13.710;100.604;2023-03-23T03:52:12;19.20;;;12.70;;
76094;SDS011;64821;13.710;100.604;2023-03-23T03:53:14;18.58;;;12.68;;
76094;SDS011;64821;13.710;100.604;2023-03-23T03:54:16;18.42;;;11.93;;
76094;SDS011;64821;13.710;100.604;2023-03-23T03:55:18;16.65;;;11.32;;
76094;SDS011;64821;13.710;100.604;2023-03-23T03:56:20;16.40;;;10.80;;
76094;SDS011;64821;13.710;100.604;2023-03-23T03:57:22;19.10;;;11.88;;
76094;SDS011;64821;13.710;100.604;2023-03-23T03:58:25;16.60;;;11.88;;
76094;SDS011;64821;13.710;100.604;2023-03-23T03:59:27;17.00;;;11.55;;
76094;SDS011;64821;13.710;100.604;2023-03-23T04:00:29;17.88;;;11.90;;
76094;SDS011;64821;13.710;100.604;2023-03-23T04:01:31;18.80;;;11.77;;
76094;SDS011;64821;13.710;100.604;2023-03-23T04:02:32;16.45;;;10.90;;
76094;SDS011;64821;13.710;100.604;2023-03-23T04:03:34;18.25;;;11.40;;
76094;SDS011;64821;13.710;100.604;2023-03-23T04:04:37;17.20;;;11.80;;
76094;SDS011;64821;13.710;100.604;2023-03-23T04:05:41;16.40;;;10.98;;
76094;SDS011;64821;13.710;100.604;2023-03-23T04:06:43;16.40;;;11.20;;
76094;SDS011;64821;13.710;100.604;2023-03-23T04:07:45;16.15;;;11.55;;
76094;SDS011;64821;13.710;100.604;2023-03-23T04:08:47;18.92;;;11.40;;
76094;SDS011;64821;13.710;100.604;2023-03-23T04:09:49;18.95;;;12.20;;
76094;SDS011;64821;13.710;100.604;2023-03-23T04:10:51;16.95;;;11.95;;
76094;SDS011;64821;13.710;100.604;2023-03-23T04:11:53;19.73;;;13.00;;
76094;SDS011;64821;13.710;100.604;2023-03-23T04:12:55;19.77;;;12.52;;
76094;SDS011;64821;13.710;100.604;2023-03-23T04:13:57;19.10;;;12.20;;
76094;SDS011;64821;13.710;100.604;2023-03-23T04:14:59;17.17;;;12.10;;
76094;SDS011;64821;13.710;100.604;2023-03-23T04:16:01;20.15;;;12.38;;
76094;SDS011;64821;13.710;100.604;2023-03-23T04:17:03;14.70;;;11.13;;
76094;SDS011;64821;13.710;100.604;2023-03-23T04:18:05;19.75;;;12.38;;
76094;SDS011;64821;13.710;100.604;2023-03-23T04:19:07;15.38;;;11.73;;
76094;SDS011;64821;13.710;100.604;2023-03-23T04:20:09;17.60;;;11.93;;
76094;SDS011;64821;13.710;100.604;2023-03-23T04:21:14;18.45;;;12.55;;
76094;SDS011;64821;13.710;100.604;2023-03-23T04:22:16;20.30;;;11.83;;
76094;SDS011;64821;13.710;100.604;2023-03-23T04:23:18;17.95;;;11.65;;
76094;SDS011;64821;13.710;100.604;2023-03-23T04:24:21;18.83;;;12.82;;
76094;SDS011;64821;13.710;100.604;2023-03-23T04:25:23;18.30;;;12.38;;
76094;SDS011;64821;13.710;100.604;2023-03-23T04:26:25;16.77;;;11.38;;
76094;SDS011;64821;13.710;100.604;2023-03-23T04:27:28;16.97;;;11.30;;
76094;SDS011;64821;13.710;100.604;2023-03-23T04:28:30;20.92;;;11.98;;
76094;SDS011;64821;13.710;100.604;2023-03-23T04:29:32;17.33;;;12.43;;
76094;SDS011;64821;13.710;100.604;2023-03-23T04:30:34;16.92;;;11.63;;
76094;SDS011;64821;13.710;100.604;2023-03-23T04:31:35;17.02;;;11.32;;
76094;SDS011;64821;13.710;100.604;2023-03-23T04:32:37;17.10;;;11.27;;
76094;SDS011;64821;13.710;100.604;2023-03-23T04:33:39;15.80;;;10.90;;
76094;SDS011;64821;13.710;100.604;2023-03-23T04:34:41;19.90;;;11.57;;
76094;SDS011;64821;13.710;100.604;2023-03-23T04:35:43;18.10;;;11.55;;
76094;SDS011;64821;13.710;100.604;2023-03-23T04:36:47;22.02;;;11.80;;
76094;SDS011;64821;13.710;100.604;2023-03-23T04:37:49;19.50;;;12.17;;
76094;SDS011;64821;13.710;100.604;2023-03-23T04:38:51;20.02;;;11.80;;
76094;SDS011;64821;13.710;100.604;2023-03-23T04:39:53;17.10;;;11.10;;
76094;SDS011;64821;13.710;100.604;2023-03-23T04:40:58;15.38;;;11.38;;
76094;SDS011;64821;13.710;100.604;2023-03-23T04:42:01;18.67;;;11.75;;
76094;SDS011;64821;13.710;100.604;2023-03-23T04:43:03;17.83;;;11.60;;
76094;SDS011;64821;13.710;100.604;2023-03-23T04:44:05;16.25;;;11.18;;
76094;SDS011;64821;13.710;100.604;2023-03-23T04:45:08;18.13;;;11.70;;
76094;SDS011;64821;13.710;100.604;2023-03-23T04:46:10;16.52;;;11.23;;
76094;SDS011;64821;13.710;100.604;2023-03-23T04:47:12;16.38;;;11.40;;
76094;SDS011;64821;13.710;100.604;2023-03-23T04:48:14;17.00;;;10.90;;
76094;SDS011;64821;13.710;100.604;2023-03-23T04:49:16;16.17;;;11.43;;
76094;SDS011;64821;13.710;100.604;2023-03-23T04:50:19;16.42;;;11.40;;
76094;SDS011;64821;13.710;100.604;2023-03-23T04:51:22;17.20;;;11.00;;
76094;SDS011;64821;13.710;100.604;2023-03-23T04:52:26;15.98;;;10.65;;
76094;SDS011;64821;13.710;100.604;2023-03-23T04:53:28;18.57;;;10.53;;
76094;SDS011;64821;13.710;100.604;2023-03-23T04:54:30;17.55;;;11.57;;
76094;SDS011;64821;13.710;100.604;2023-03-23T04:55:33;16.95;;;11.18;;
76094;SDS011;64821;13.710;100.604;2023-03-23T04:56:37;17.67;;;10.90;;
76094;SDS011;64821;13.710;100.604;2023-03-23T04:57:39;18.00;;;10.75;;
76094;SDS011;64821;13.710;100.604;2023-03-23T04:58:41;15.53;;;9.67;;
76094;SDS011;64821;13.710;100.604;2023-03-23T04:59:43;18.00;;;10.07;;
76094;SDS011;64821;13.710;100.604;2023-03-23T05:00:45;14.48;;;10.40;;
76094;SDS011;64821;13.710;100.604;2023-03-23T05:01:47;15.50;;;10.57;;
76094;SDS011;64821;13.710;100.604;2023-03-23T05:02:49;16.58;;;11.10;;
76094;SDS011;64821;13.710;100.604;2023-03-23T05:03:54;17.23;;;11.37;;
76094;SDS011;64821;13.710;100.604;2023-03-23T05:04:56;17.55;;;11.35;;
76094;SDS011;64821;13.710;100.604;2023-03-23T05:06:00;15.35;;;10.68;;
76094;SDS011;64821;13.710;100.604;2023-03-23T05:07:03;14.65;;;10.40;;
76094;SDS011;64821;13.710;100.604;2023-03-23T05:08:06;14.63;;;10.18;;
76094;SDS011;64821;13.710;100.604;2023-03-23T05:09:08;18.30;;;11.80;;
76094;SDS011;64821;13.710;100.604;2023-03-23T05:10:11;17.80;;;11.32;;
76094;SDS011;64821;13.710;100.604;2023-03-23T05:11:13;16.77;;;10.95;;
76094;SDS011;64821;13.710;100.604;2023-03-23T05:12:15;14.98;;;11.02;;
76094;SDS011;64821;13.710;100.604;2023-03-23T05:13:17;16.23;;;11.00;;
76094;SDS011;64821;13.710;100.604;2023-03-23T05:14:19;14.33;;;10.80;;
76094;SDS011;64821;13.710;100.604;2023-03-23T05:15:21;14.95;;;10.63;;
76094;SDS011;64821;13.710;100.604;2023-03-23T05:16:23;16.40;;;11.68;;
76094;SDS011;64821;13.710;100.604;2023-03-23T05:17:25;17.85;;;11.18;;
76094;SDS011;64821;13.710;100.604;2023-03-23T05:18:27;15.45;;;11.00;;
76094;SDS011;64821;13.710;100.604;2023-03-23T05:19:29;16.63;;;11.23;;
76094;SDS011;64821;13.710;100.604;2023-03-23T05:20:31;17.15;;;11.70;;
76094;SDS011;64821;13.710;100.604;2023-03-23T05:21:33;16.45;;;11.07;;
76094;SDS011;64821;13.710;100.604;2023-03-23T05:22:35;18.63;;;12.38;;
76094;SDS011;64821;13.710;100.604;2023-03-23T05:23:39;17.70;;;11.88;;
76094;SDS011;64821;13.710;100.604;2023-03-23T05:24:41;16.83;;;11.27;;
76094;SDS011;64821;13.710;100.604;2023-03-23T05:25:43;15.98;;;11.43;;
76094;SDS011;64821;13.710;100.604;2023-03-23T05:26:45;17.25;;;10.55;;
76094;SDS011;64821;13.710;100.604;2023-03-23T05:27:47;15.75;;;10.77;;
76094;SDS011;64821;13.710;100.604;2023-03-23T05:28:49;14.75;;;10.55;;
76094;SDS011;64821;13.710;100.604;2023-03-23T05:29:51;15.37;;;11.30;;
76094;SDS011;64821;13.710;100.604;2023-03-23T05:30:53;16.63;;;10.63;;
76094;SDS011;64821;13.710;100.604;2023-03-23T05:31:55;16.73;;;10.48;;
76094;SDS011;64821;13.710;100.604;2023-03-23T05:32:57;15.57;;;10.00;;
76094;SDS011;64821;13.710;100.604;2023-03-23T05:33:59;16.20;;;10.45;;
76094;SDS011;64821;13.710;100.604;2023-03-23T05:35:01;15.80;;;10.43;;
76094;SDS011;64821;13.710;100.604;2023-03-23T05:36:04;16.45;;;11.30;;
76094;SDS011;64821;13.710;100.604;2023-03-23T05:37:06;14.18;;;9.90;;
76094;SDS011;64821;13.710;100.604;2023-03-23T05:38:08;15.30;;;11.00;;
76094;SDS011;64821;13.710;100.604;2023-03-23T05:39:12;15.07;;;10.35;;
76094;SDS011;64821;13.710;100.604;2023-03-23T05:40:14;15.60;;;10.20;;
76094;SDS011;64821;13.710;100.604;2023-03-23T05:41:16;17.02;;;11.13;;
76094;SDS011;64821;13.710;100.604;2023-03-23T05:42:18;20.00;;;11.63;;
76094;SDS011;64821;13.710;100.604;2023-03-23T05:43:20;16.60;;;10.45;;
76094;SDS011;64821;13.710;100.604;2023-03-23T05:44:22;16.52;;;10.73;;
76094;SDS011;64821;13.710;100.604;2023-03-23T05:45:24;16.10;;;10.43;;
76094;SDS011;64821;13.710;100.604;2023-03-23T05:46:26;15.63;;;11.18;;
76094;SDS011;64821;13.710;100.604;2023-03-23T05:47:28;18.67;;;11.60;;
76094;SDS011;64821;13.710;100.604;2023-03-23T05:48:30;16.50;;;10.45;;
76094;SDS011;64821;13.710;100.604;2023-03-23T05:49:32;18.33;;;11.10;;
76094;SDS011;64821;13.710;100.604;2023-03-23T05:50:34;16.23;;;11.00;;
76094;SDS011;64821;13.710;100.604;2023-03-23T05:51:36;15.77;;;11.15;;
76094;SDS011;64821;13.710;100.604;2023-03-23T05:52:38;17.25;;;11.65;;
76094;SDS011;64821;13.710;100.604;2023-03-23T05:53:41;16.40;;;11.98;;
76094;SDS011;64821;13.710;100.604;2023-03-23T05:54:44;17.58;;;12.75;;
76094;SDS011;64821;13.710;100.604;2023-03-23T05:55:47;16.10;;;12.53;;
76094;SDS011;64821;13.710;100.604;2023-03-23T05:56:49;17.00;;;13.27;;
76094;SDS011;64821;13.710;100.604;2023-03-23T05:57:50;14.38;;;10.85;;
76094;SDS011;64821;13.710;100.604;2023-03-23T05:58:54;16.55;;;11.02;;
76094;SDS011;64821;13.710;100.604;2023-03-23T05:59:56;18.70;;;11.60;;
76094;SDS011;64821;13.710;100.604;2023-03-23T06:00:58;16.53;;;10.97;;
76094;SDS011;64821;13.710;100.604;2023-03-23T06:02:00;15.27;;;10.45;;
76094;SDS011;64821;13.710;100.604;2023-03-23T06:03:02;15.60;;;10.93;;
76094;SDS011;64821;13.710;100.604;2023-03-23T06:04:04;16.23;;;11.88;;
76094;SDS011;64821;13.710;100.604;2023-03-23T06:05:06;16.38;;;11.70;;
76094;SDS011;64821;13.710;100.604;2023-03-23T06:06:09;16.87;;;11.27;;
76094;SDS011;64821;13.710;100.604;2023-03-23T06:07:11;16.25;;;11.65;;
76094;SDS011;64821;13.710;100.604;2023-03-23T06:08:13;17.73;;;11.88;;
76094;SDS011;64821;13.710;100.604;2023-03-23T06:09:15;15.93;;;11.27;;
76094;SDS011;64821;13.710;100.604;2023-03-23T06:10:19;18.95;;;12.40;;